createdAt,value
2022-12-31T00:02:15.565Z,97784.31
2022-12-31T00:04:42.295Z,97787.81
2022-12-31T00:07:09.024Z,97777.84
2022-12-31T00:09:35.674Z,97791.50
2022-12-31T00:12:02.228Z,97781.16
2022-12-31T00:14:28.897Z,97789.88
2022-12-31T00:16:56.008Z,97784.44
2022-12-31T00:19:22.685Z,97789.69
2022-12-31T00:21:49.394Z,97785.09
2022-12-31T00:24:16.068Z,97784.25
2022-12-31T00:26:42.678Z,97785.09
2022-12-31T00:29:10.169Z,97792.13
2022-12-31T00:31:38.446Z,97799.97
2022-12-31T00:34:06.355Z,97809.84
2022-12-31T00:36:38.201Z,97805.53
2022-12-31T00:39:07.447Z,97811.47
2022-12-31T00:41:34.842Z,97818.13
2022-12-31T00:44:01.714Z,97805.34
2022-12-31T00:46:28.527Z,97821.88
2022-12-31T00:48:55.508Z,97825.31
2022-12-31T00:51:24.321Z,97829.25
2022-12-31T00:53:51.151Z,97829.94
2022-12-31T00:56:23.643Z,97844.63
2022-12-31T00:58:51.413Z,97849.00
2022-12-31T01:01:22.322Z,97839.47
2022-12-31T01:03:51.526Z,97830.94
2022-12-31T01:06:19.550Z,97818.78
2022-12-31T01:08:48.930Z,97826.88
2022-12-31T01:11:19.232Z,97827.41
2022-12-31T01:13:48.747Z,97817.97
2022-12-31T01:16:16.823Z,97824.59
2022-12-31T01:18:43.438Z,97830.16
2022-12-31T01:21:11.290Z,97845.59
2022-12-31T01:23:38.501Z,97831.88
2022-12-31T01:26:08.099Z,97831.06
2022-12-31T01:28:35.363Z,97838.34
2022-12-31T01:31:10.918Z,97842.91
2022-12-31T01:33:38.413Z,97847.94
2022-12-31T01:36:08.227Z,97854.13
2022-12-31T01:38:35.026Z,97857.94
2022-12-31T01:41:02.596Z,97859.38
2022-12-31T01:43:49.444Z,97856.25
2022-12-31T01:46:27.189Z,97874.41
2022-12-31T01:48:57.791Z,97868.13
2022-12-31T01:51:27.555Z,97876.63
2022-12-31T01:53:55.166Z,97890.56
2022-12-31T01:56:23.251Z,97879.44
2022-12-31T01:58:53.301Z,97868.41
2022-12-31T02:01:31.005Z,97875.41
2022-12-31T02:03:59.314Z,97884.56
2022-12-31T02:06:32.455Z,97880.81
2022-12-31T02:08:59.100Z,97889.22
2022-12-31T02:11:25.840Z,97893.41
2022-12-31T02:13:58.320Z,97900.81
2022-12-31T02:16:37.716Z,97905.66
2022-12-31T02:19:29.226Z,97908.38
2022-12-31T02:21:58.723Z,97905.63
2022-12-31T02:24:34.440Z,97893.91
2022-12-31T02:27:20.648Z,97903.94
2022-12-31T02:30:11.849Z,97908.28
2022-12-31T02:32:56.620Z,97915.50
2022-12-31T02:35:38.268Z,97912.97
2022-12-31T02:38:10.470Z,97917.44
2022-12-31T02:40:38.656Z,97925.41
2022-12-31T02:43:05.609Z,97931.03
2022-12-31T02:45:37.493Z,97925.06
2022-12-31T02:48:31.965Z,97926.22
2022-12-31T02:51:26.789Z,97914.13
2022-12-31T02:54:07.352Z,97914.97
2022-12-31T02:57:09.767Z,97893.06
2022-12-31T03:00:06.918Z,97895.06
2022-12-31T03:02:35.325Z,97890.19
2022-12-31T03:05:03.310Z,97904.03
2022-12-31T03:07:32.197Z,97910.13
2022-12-31T03:10:01.344Z,97905.22
2022-12-31T03:12:46.753Z,97910.41
2022-12-31T03:15:21.048Z,97910.56
2022-12-31T03:18:08.049Z,97902.75
2022-12-31T03:20:56.544Z,97904.72
2022-12-31T03:23:29.317Z,97916.00
2022-12-31T03:25:57.489Z,97906.41
2022-12-31T03:28:27.057Z,97920.94
2022-12-31T03:30:56.620Z,97917.59
2022-12-31T03:33:23.814Z,97909.47
2022-12-31T03:35:51.696Z,97915.63
2022-12-31T03:38:19.309Z,97915.91
2022-12-31T03:40:50.168Z,97914.66
2022-12-31T03:43:19.286Z,97910.47
2022-12-31T03:45:53.661Z,97909.59
2022-12-31T03:48:22.687Z,97909.06
2022-12-31T03:50:50.565Z,97908.47
2022-12-31T03:53:17.704Z,97911.69
2022-12-31T03:55:44.740Z,97908.50
2022-12-31T03:58:11.653Z,97909.75
2022-12-31T04:00:38.552Z,97904.44
2022-12-31T04:03:06.223Z,97910.75
2022-12-31T04:05:33.783Z,97908.63
2022-12-31T04:08:00.481Z,97901.50
2022-12-31T04:10:27.064Z,97899.81
2022-12-31T04:12:56.185Z,97900.06
2022-12-31T04:15:22.963Z,97897.88
2022-12-31T04:17:49.679Z,97900.25
2022-12-31T04:20:17.069Z,97892.09
2022-12-31T04:22:44.193Z,97891.25
2022-12-31T04:25:11.697Z,97886.22
2022-12-31T04:27:43.711Z,97889.84
2022-12-31T04:30:12.208Z,97895.16
2022-12-31T04:32:38.966Z,97895.56
2022-12-31T04:35:06.271Z,97900.47
2022-12-31T04:37:33.123Z,97908.59
2022-12-31T04:40:05.451Z,97903.97
2022-12-31T04:42:32.718Z,97922.06
2022-12-31T04:44:59.376Z,97907.91
2022-12-31T04:47:26.017Z,97904.00
2022-12-31T04:49:52.643Z,97907.88
2022-12-31T04:52:19.407Z,97917.97
2022-12-31T04:54:46.027Z,97909.31
2022-12-31T04:57:12.870Z,97915.03
2022-12-31T04:59:39.751Z,97913.91
2022-12-31T05:02:06.732Z,97903.44
2022-12-31T05:04:33.676Z,97900.50
2022-12-31T05:07:00.330Z,97902.44
2022-12-31T05:09:28.386Z,97911.25
2022-12-31T05:11:55.287Z,97912.53
2022-12-31T05:14:22.325Z,97925.16
2022-12-31T05:16:49.076Z,97917.25
2022-12-31T05:19:15.753Z,97908.31
2022-12-31T05:21:42.405Z,97913.59
2022-12-31T05:24:09.133Z,97915.91
2022-12-31T05:26:35.822Z,97911.91
2022-12-31T05:29:02.537Z,97907.47
2022-12-31T05:31:29.933Z,97904.63
2022-12-31T05:33:56.803Z,97906.53
2022-12-31T05:36:23.657Z,97906.28
2022-12-31T05:38:50.408Z,97894.56
2022-12-31T05:41:17.138Z,97903.81
2022-12-31T05:43:43.752Z,97903.38
2022-12-31T05:46:10.381Z,97914.13
2022-12-31T05:48:37.022Z,97925.94
2022-12-31T05:51:03.860Z,97922.84
2022-12-31T05:53:30.528Z,97933.44
2022-12-31T05:55:57.262Z,97936.38
2022-12-31T05:58:24.175Z,97948.41
2022-12-31T06:00:53.164Z,97938.50
2022-12-31T06:03:19.991Z,97952.25
2022-12-31T06:05:46.644Z,97942.97
2022-12-31T06:08:13.394Z,97950.19
2022-12-31T06:10:40.556Z,97940.66
2022-12-31T06:13:07.999Z,97934.00
2022-12-31T06:15:42.058Z,97954.13
2022-12-31T06:18:08.756Z,97955.91
2022-12-31T06:20:38.746Z,97946.78
2022-12-31T06:23:05.732Z,97953.84
2022-12-31T06:25:35.205Z,97962.28
2022-12-31T06:28:01.996Z,97953.69
2022-12-31T06:30:28.643Z,97953.34
2022-12-31T06:32:56.150Z,97969.31
2022-12-31T06:35:23.663Z,97983.09
2022-12-31T06:37:52.227Z,97975.03
2022-12-31T06:40:18.959Z,97973.13
2022-12-31T06:42:45.759Z,97969.31
2022-12-31T06:45:12.544Z,97972.63
2022-12-31T06:47:39.269Z,97973.56
2022-12-31T06:50:07.296Z,97990.78
2022-12-31T06:52:34.360Z,97985.94
2022-12-31T06:55:01.726Z,97998.66
2022-12-31T06:57:29.013Z,98007.81
2022-12-31T06:59:56.174Z,98002.13
2022-12-31T07:02:39.502Z,98011.09
2022-12-31T07:05:30.207Z,98015.22
2022-12-31T07:08:03.414Z,98023.84
2022-12-31T07:11:07.448Z,98023.16
2022-12-31T07:14:07.144Z,98031.56
2022-12-31T07:16:36.864Z,98023.88
2022-12-31T07:19:10.099Z,98028.84
2022-12-31T07:21:40.059Z,98033.16
2022-12-31T07:24:10.764Z,98020.06
2022-12-31T07:26:57.110Z,98016.22
2022-12-31T07:29:44.436Z,98021.22
2022-12-31T07:32:22.785Z,98015.16
2022-12-31T07:35:04.695Z,98019.34
2022-12-31T07:37:56.580Z,98019.88
2022-12-31T07:40:35.448Z,98027.13
2022-12-31T07:43:17.310Z,98025.97
2022-12-31T07:46:06.460Z,98023.00
2022-12-31T07:48:33.462Z,98032.19
2022-12-31T07:51:00.342Z,98021.16
2022-12-31T07:53:27.320Z,98034.75
2022-12-31T07:55:57.468Z,98033.00
2022-12-31T07:58:33.782Z,98039.03
2022-12-31T08:01:01.841Z,98047.72
2022-12-31T08:03:49.754Z,98052.47
2022-12-31T08:06:27.627Z,98045.88
2022-12-31T08:09:04.549Z,98041.78
2022-12-31T08:12:10.533Z,98034.50
2022-12-31T08:14:47.117Z,98039.19
2022-12-31T08:17:16.213Z,98053.97
2022-12-31T08:19:43.955Z,98058.06
2022-12-31T08:22:44.567Z,98061.22
2022-12-31T08:25:27.511Z,98064.88
2022-12-31T08:28:29.764Z,98063.31
2022-12-31T08:31:03.227Z,98073.91
2022-12-31T08:33:43.996Z,98056.75
2022-12-31T08:36:23.005Z,98050.28
2022-12-31T08:39:08.038Z,98051.34
2022-12-31T08:41:47.731Z,98040.72
2022-12-31T08:44:20.873Z,98046.50
2022-12-31T08:47:02.721Z,98037.59
2022-12-31T08:49:32.276Z,98037.63
2022-12-31T08:52:00.385Z,98048.38
2022-12-31T08:54:27.793Z,98045.28
2022-12-31T08:57:00.136Z,98053.22
2022-12-31T08:59:37.573Z,98044.50
2022-12-31T09:02:24.508Z,98053.16
2022-12-31T09:05:09.954Z,98070.28
2022-12-31T09:07:51.270Z,98065.63
2022-12-31T09:10:30.227Z,98050.69
2022-12-31T09:12:56.955Z,98066.94
2022-12-31T09:15:33.828Z,98057.38
2022-12-31T09:18:00.851Z,98062.91
2022-12-31T09:20:42.741Z,98068.34
2022-12-31T09:23:12.796Z,98076.03
2022-12-31T09:25:50.229Z,98060.72
2022-12-31T09:28:43.517Z,98057.41
2022-12-31T09:31:26.186Z,98081.31
2022-12-31T09:34:13.037Z,98073.47
2022-12-31T09:36:51.010Z,98086.75
2022-12-31T09:39:26.850Z,98079.91
2022-12-31T09:41:59.531Z,98080.75
2022-12-31T09:44:58.967Z,98087.91
2022-12-31T09:47:37.795Z,98086.00
2022-12-31T09:50:04.779Z,98091.69
2022-12-31T09:52:58.803Z,98073.56
2022-12-31T09:55:32.196Z,98079.25
2022-12-31T09:58:44.152Z,98078.13
2022-12-31T10:01:37.103Z,98076.13
2022-12-31T10:04:19.925Z,98078.31
2022-12-31T10:07:24.027Z,98075.31
2022-12-31T10:09:56.846Z,98083.84
2022-12-31T10:12:56.082Z,98065.56
2022-12-31T10:16:18.663Z,98063.25
2022-12-31T10:19:06.914Z,98064.44
2022-12-31T10:21:59.057Z,98064.72
2022-12-31T10:24:47.303Z,98052.09
2022-12-31T10:27:28.693Z,98055.13
2022-12-31T10:30:03.594Z,98040.19
2022-12-31T10:32:43.517Z,98052.00
2022-12-31T10:35:23.634Z,98045.03
2022-12-31T10:37:58.295Z,98040.56
2022-12-31T10:40:39.737Z,98036.34
2022-12-31T10:43:31.442Z,98036.81
2022-12-31T10:46:35.762Z,98037.16
2022-12-31T10:49:25.528Z,98031.38
2022-12-31T10:52:02.045Z,98029.59
2022-12-31T10:54:55.996Z,98033.13
2022-12-31T10:57:44.802Z,98023.41
2022-12-31T11:00:16.165Z,98020.16
2022-12-31T11:03:10.405Z,98020.88
2022-12-31T11:06:08.233Z,98032.50
2022-12-31T11:09:02.403Z,98029.22
2022-12-31T11:11:52.501Z,98033.09
2022-12-31T11:14:37.477Z,98025.66
2022-12-31T11:17:14.528Z,98034.59
2022-12-31T11:19:51.772Z,98038.19
2022-12-31T11:22:51.304Z,97991.03
2022-12-31T11:26:00.473Z,98021.53
2022-12-31T11:28:55.127Z,98013.38
2022-12-31T11:31:55.014Z,98015.50
2022-12-31T11:34:21.914Z,98032.50
2022-12-31T11:37:26.376Z,98028.38
2022-12-31T11:40:30.833Z,98031.72
2022-12-31T11:42:58.863Z,98036.63
2022-12-31T11:45:37.788Z,98037.28
2022-12-31T11:48:31.075Z,98042.19
2022-12-31T11:51:17.246Z,98043.75
2022-12-31T11:54:14.291Z,98058.84
2022-12-31T11:56:53.759Z,98049.56
2022-12-31T11:59:22.165Z,98062.31
2022-12-31T12:01:59.569Z,98058.91
2022-12-31T12:04:26.659Z,98062.53
2022-12-31T12:06:53.612Z,98065.34
2022-12-31T12:09:32.461Z,98070.19
2022-12-31T12:12:04.875Z,98070.31
2022-12-31T12:14:37.392Z,98073.41
2022-12-31T12:17:16.784Z,98058.03
2022-12-31T12:19:47.179Z,98058.84
2022-12-31T12:22:23.560Z,98062.81
2022-12-31T12:25:16.755Z,98063.47
2022-12-31T12:27:43.693Z,98058.75
2022-12-31T12:30:22.810Z,98054.53
2022-12-31T12:33:01.343Z,98045.63
2022-12-31T12:35:31.616Z,98050.19
2022-12-31T12:38:04.748Z,98052.63
2022-12-31T12:40:34.397Z,98055.78
2022-12-31T12:43:02.739Z,98058.41
2022-12-31T12:45:42.069Z,98067.19
2022-12-31T12:48:17.979Z,98062.53
2022-12-31T12:50:48.406Z,98067.78
2022-12-31T12:53:52.235Z,98070.69
2022-12-31T12:56:54.105Z,98053.91
2022-12-31T12:59:51.094Z,98062.59
2022-12-31T13:02:48.974Z,98060.44
2022-12-31T13:05:38.993Z,98074.25
2022-12-31T13:08:25.661Z,98073.75
2022-12-31T13:11:01.265Z,98070.06
2022-12-31T13:13:41.665Z,98057.84
2022-12-31T13:16:32.879Z,98055.19
2022-12-31T13:19:44.695Z,98049.69
2022-12-31T13:22:29.706Z,98056.94
2022-12-31T13:24:59.280Z,98064.25
2022-12-31T13:27:32.132Z,98062.19
2022-12-31T13:30:03.902Z,98058.22
2022-12-31T13:32:40.179Z,98056.22
2022-12-31T13:35:42.474Z,98063.72
2022-12-31T13:38:21.761Z,98058.13
2022-12-31T13:40:57.023Z,98062.22
2022-12-31T13:43:32.827Z,98065.97
2022-12-31T13:46:08.538Z,98073.44
2022-12-31T13:49:27.204Z,98073.69
2022-12-31T13:52:07.163Z,98078.16
2022-12-31T13:54:53.549Z,98083.03
2022-12-31T13:57:39.059Z,98076.00
2022-12-31T14:00:17.318Z,98067.78
2022-12-31T14:02:47.899Z,98068.56
2022-12-31T14:05:23.102Z,98070.69
2022-12-31T14:07:59.169Z,98069.63
2022-12-31T14:10:31.832Z,98062.41
2022-12-31T14:13:34.764Z,98062.41
2022-12-31T14:16:13.492Z,98071.19
2022-12-31T14:18:57.225Z,98081.22
2022-12-31T14:21:29.704Z,98083.56
2022-12-31T14:24:18.454Z,98090.78
2022-12-31T14:26:49.732Z,98094.88
2022-12-31T14:29:55.400Z,98081.78
2022-12-31T14:32:30.998Z,98096.00
2022-12-31T14:35:22.425Z,98105.00
2022-12-31T14:38:10.561Z,98099.03
2022-12-31T14:40:43.773Z,98103.91
2022-12-31T14:43:35.466Z,98123.25
2022-12-31T14:46:39.011Z,98130.75
2022-12-31T14:49:56.631Z,98129.91
2022-12-31T14:52:31.658Z,98131.06
2022-12-31T14:55:27.426Z,98138.66
2022-12-31T15:01:08.600Z,98143.97
2022-12-31T15:03:45.019Z,98146.88
2022-12-31T15:06:24.673Z,98145.50
2022-12-31T15:09:08.183Z,98152.41
2022-12-31T15:11:58.638Z,98147.69
2022-12-31T15:14:43.631Z,98157.13
2022-12-31T15:17:22.183Z,98164.00
2022-12-31T15:20:01.780Z,98156.94
2022-12-31T15:22:28.524Z,98158.28
2022-12-31T15:24:55.522Z,98162.63
2022-12-31T15:27:38.299Z,98153.25
2022-12-31T15:30:06.688Z,98158.22
2022-12-31T15:32:43.406Z,98146.34
2022-12-31T15:35:22.301Z,98146.16
2022-12-31T15:38:17.181Z,98132.06
2022-12-31T15:40:46.153Z,98137.25
2022-12-31T15:43:25.259Z,98140.75
2022-12-31T15:45:54.961Z,98146.25
2022-12-31T15:48:26.935Z,98142.25
2022-12-31T15:50:57.946Z,98150.66
2022-12-31T15:53:33.319Z,98153.47
2022-12-31T15:56:02.540Z,98152.50
2022-12-31T15:58:38.291Z,98162.88
2022-12-31T16:01:20.272Z,98157.66
2022-12-31T16:03:51.769Z,98156.84
2022-12-31T16:06:18.597Z,98160.22
2022-12-31T16:08:48.026Z,98166.06
2022-12-31T16:11:15.741Z,98163.75
2022-12-31T16:13:45.635Z,98169.38
2022-12-31T16:16:31.518Z,98167.22
2022-12-31T16:19:00.496Z,98181.47
2022-12-31T16:21:36.040Z,98174.28
2022-12-31T16:24:29.601Z,98177.00
2022-12-31T16:26:59.922Z,98178.03
2022-12-31T16:29:27.052Z,98183.56
2022-12-31T16:31:54.090Z,98181.44
2022-12-31T16:34:26.187Z,98174.81
2022-12-31T16:37:01.505Z,98182.31
2022-12-31T16:39:32.371Z,98191.34
2022-12-31T16:42:09.647Z,98183.94
2022-12-31T16:44:36.500Z,98184.03
2022-12-31T16:47:04.152Z,98178.00
2022-12-31T16:49:33.240Z,98181.25
2022-12-31T16:52:07.896Z,98166.56
2022-12-31T16:54:39.445Z,98175.13
2022-12-31T16:57:06.707Z,98181.50
2022-12-31T16:59:35.818Z,98183.19
2022-12-31T17:02:11.560Z,98175.66
2022-12-31T17:04:45.112Z,98172.91
2022-12-31T17:07:30.443Z,98179.47
2022-12-31T17:10:13.123Z,98187.84
2022-12-31T17:13:25.636Z,98190.91
2022-12-31T17:15:44.430Z,98191.19
2022-12-31T17:18:20.008Z,98194.34
2022-12-31T17:20:47.873Z,98198.78
2022-12-31T17:23:31.788Z,98196.47
2022-12-31T17:26:03.275Z,98190.81
2022-12-31T17:28:39.602Z,98196.09
2022-12-31T17:31:25.524Z,98191.44
2022-12-31T17:33:54.811Z,98188.66
2022-12-31T17:36:23.530Z,98185.31
2022-12-31T17:38:53.691Z,98186.13
2022-12-31T17:41:24.902Z,98191.16
2022-12-31T17:43:54.883Z,98197.72
2022-12-31T17:46:23.243Z,98201.91
2022-12-31T17:48:53.242Z,98200.88
2022-12-31T17:51:24.309Z,98200.22
2022-12-31T17:53:51.547Z,98198.28
2022-12-31T17:56:19.641Z,98196.94
2022-12-31T17:58:48.419Z,98200.88
2022-12-31T18:01:19.073Z,98207.59
2022-12-31T18:03:47.784Z,98207.50
2022-12-31T18:06:17.095Z,98217.00
2022-12-31T18:08:44.224Z,98220.34
2022-12-31T18:11:23.281Z,98210.56
2022-12-31T18:13:50.437Z,98216.44
2022-12-31T18:16:17.322Z,98216.84
2022-12-31T18:18:45.392Z,98212.31
2022-12-31T18:21:41.897Z,98202.97
2022-12-31T18:24:14.053Z,98211.75
2022-12-31T18:26:41.289Z,98211.00
2022-12-31T18:29:19.493Z,98210.22
2022-12-31T18:31:47.884Z,98205.06
2022-12-31T18:34:16.031Z,98222.91
2022-12-31T18:36:43.052Z,98214.66
2022-12-31T18:39:09.945Z,98207.88
2022-12-31T18:41:42.703Z,98204.31
2022-12-31T18:44:12.410Z,98201.78
2022-12-31T18:46:39.187Z,98201.75
2022-12-31T18:49:05.824Z,98192.69
2022-12-31T18:51:33.970Z,98187.31
2022-12-31T18:54:02.545Z,98193.03
2022-12-31T18:56:29.231Z,98185.84
2022-12-31T18:58:56.086Z,98187.59
2022-12-31T19:01:27.966Z,98191.53
2022-12-31T19:03:57.244Z,98179.47
2022-12-31T19:06:24.569Z,98184.81
2022-12-31T19:08:51.648Z,98179.66
2022-12-31T19:11:18.880Z,98186.88
2022-12-31T19:13:45.931Z,98188.66
2022-12-31T19:16:14.008Z,98184.75
2022-12-31T19:18:41.838Z,98184.16
2022-12-31T19:21:20.377Z,98185.50
2022-12-31T19:23:47.385Z,98193.38
2022-12-31T19:26:20.199Z,98194.94
2022-12-31T19:28:47.651Z,98188.44
2022-12-31T19:31:15.023Z,98201.16
2022-12-31T19:33:42.139Z,98188.59
2022-12-31T19:36:17.023Z,98180.63
2022-12-31T19:38:44.423Z,98177.59
2022-12-31T19:41:18.237Z,98169.44
2022-12-31T19:43:45.384Z,98172.59
2022-12-31T19:46:17.269Z,98173.28
2022-12-31T19:48:45.551Z,98181.16
2022-12-31T19:51:16.888Z,98181.78
2022-12-31T19:53:45.008Z,98194.75
2022-12-31T19:56:18.107Z,98176.44
2022-12-31T19:58:45.397Z,98180.91
2022-12-31T20:01:22.829Z,98173.34
2022-12-31T20:03:50.470Z,98174.19
2022-12-31T20:06:18.233Z,98177.25
2022-12-31T20:08:46.501Z,98175.88
2022-12-31T20:11:20.433Z,98181.38
2022-12-31T20:13:48.303Z,98179.69
2022-12-31T20:16:17.767Z,98184.56
2022-12-31T20:18:46.503Z,98178.25
2022-12-31T20:21:17.881Z,98179.94
2022-12-31T20:23:45.033Z,98175.03
2022-12-31T20:26:11.911Z,98177.38
2022-12-31T20:28:38.737Z,98182.41
2022-12-31T20:31:11.055Z,98176.09
2022-12-31T20:33:37.666Z,98181.44
2022-12-31T20:36:06.780Z,98197.25
2022-12-31T20:38:33.579Z,98197.63
2022-12-31T20:41:09.418Z,98205.75
2022-12-31T20:43:37.150Z,98199.53
2022-12-31T20:46:15.403Z,98202.97
2022-12-31T20:48:43.283Z,98210.25
2022-12-31T20:51:09.994Z,98204.69
2022-12-31T20:53:36.719Z,98214.38
2022-12-31T20:56:05.018Z,98204.31
2022-12-31T20:58:31.831Z,98216.31
2022-12-31T21:00:58.657Z,98213.03
2022-12-31T21:04:02.951Z,98208.81
2022-12-31T21:06:13.139Z,98212.09
2022-12-31T21:08:40.247Z,98210.22
2022-12-31T21:11:27.794Z,98211.50
2022-12-31T21:13:56.207Z,98224.09
2022-12-31T21:16:23.591Z,98223.88
2022-12-31T21:18:51.570Z,98217.91
2022-12-31T21:21:21.809Z,98233.91
2022-12-31T21:23:48.491Z,98232.94
2022-12-31T21:26:15.476Z,98230.34
2022-12-31T21:28:42.479Z,98233.94
2022-12-31T21:31:12.189Z,98228.97
2022-12-31T21:33:39.257Z,98230.59
2022-12-31T21:36:06.096Z,98233.91
2022-12-31T21:38:36.600Z,98237.84
2022-12-31T21:41:05.444Z,98234.84
2022-12-31T21:43:32.247Z,98237.31
2022-12-31T21:46:06.371Z,98238.94
2022-12-31T21:48:34.064Z,98237.16
2022-12-31T21:51:13.274Z,98228.59
2022-12-31T21:53:40.270Z,98228.44
2022-12-31T21:56:08.514Z,98240.31
2022-12-31T21:58:40.969Z,98230.59
2022-12-31T22:01:34.108Z,98238.63
2022-12-31T22:04:01.206Z,98232.66
2022-12-31T22:06:28.367Z,98238.47
2022-12-31T22:08:56.376Z,98241.69
2022-12-31T22:11:26.040Z,98236.47
2022-12-31T22:13:53.739Z,98233.81
2022-12-31T22:16:22.422Z,98240.28
2022-12-31T22:18:50.275Z,98244.44
2022-12-31T22:21:20.428Z,98246.16
2022-12-31T22:23:52.896Z,98242.00
2022-12-31T22:26:23.612Z,98246.81
2022-12-31T22:28:51.230Z,98245.56
2022-12-31T22:31:21.417Z,98245.63
2022-12-31T22:33:49.367Z,98248.00
2022-12-31T22:36:18.998Z,98246.94
2022-12-31T22:38:46.297Z,98234.94
2022-12-31T22:41:21.373Z,98238.28
2022-12-31T22:43:50.692Z,98228.84
2022-12-31T22:46:23.196Z,98229.06
2022-12-31T22:48:50.785Z,98230.13
2022-12-31T22:51:18.122Z,98225.84
2022-12-31T22:53:44.880Z,98239.59
2022-12-31T22:56:13.976Z,98234.03
2022-12-31T22:58:41.785Z,98233.78
2022-12-31T23:01:16.553Z,98235.25
2022-12-31T23:03:43.460Z,98238.13
2022-12-31T23:06:10.600Z,98231.47
2022-12-31T23:08:37.511Z,98236.28
2022-12-31T23:11:09.540Z,98238.97
2022-12-31T23:13:57.744Z,98228.63
2022-12-31T23:16:45.532Z,98239.28
2022-12-31T23:19:31.353Z,98237.16
2022-12-31T23:22:16.630Z,98230.13
2022-12-31T23:24:43.856Z,98234.16
2022-12-31T23:27:11.392Z,98222.28
2022-12-31T23:29:46.243Z,98221.44
2022-12-31T23:32:16.013Z,98228.09
2022-12-31T23:34:46.059Z,98225.41
2022-12-31T23:37:14.311Z,98225.69
2022-12-31T23:39:41.801Z,98220.81
2022-12-31T23:42:08.749Z,98220.19
2022-12-31T23:44:35.456Z,98227.13
2022-12-31T23:47:02.107Z,98235.25
2022-12-31T23:49:28.815Z,98230.44
2022-12-31T23:51:55.748Z,98232.09
2022-12-31T23:54:22.355Z,98238.28
2022-12-31T23:56:49.155Z,98241.00
2022-12-31T23:59:16.239Z,98241.84
